ARG1707 SARI-SABE
Flight info
| Callsign | ARG1707 |
|---|---|
| Flight time | 1h 37m |
| Altitude | 32000 |
| Route | NAIDE2C NAIDE UT667 GEMSU UN785 GUA UZ129 PAGON |
| Aircraft | B738/M-SDE2E3FGHIRWXY/LB1 |
Departure
| Time | 2026-05-06 19:06 |
|---|---|
| Airport | Cataratas Del Iguazú International Airport (SARI) |
Arrival
| Time | 2026-05-06 20:44 |
|---|---|
| Airport | Aeroparque Jorge Newbery (SABE) |
| Time | Latitude | Longitude | Altitude | Speed | Heading |
|---|---|---|---|---|---|
| 2026-05-06 18:44 | -25.73225 | -54.47675 | 931 ft | 0 kts | 26° |
| 2026-05-06 18:59 | -25.73241 | -54.47684 | 927 ft | 3 kts | 25° |
| 2026-05-06 18:59 | -25.73260 | -54.47692 | 929 ft | 3 kts | 2° |
| 2026-05-06 19:00 | -25.73272 | -54.47690 | 926 ft | 3 kts | 296° |
| 2026-05-06 19:00 | -25.73281 | -54.47670 | 931 ft | 3 kts | 295° |
| 2026-05-06 19:00 | -25.73286 | -54.47658 | 929 ft | 0 kts | 295° |
| 2026-05-06 19:02 | -25.73281 | -54.47670 | 931 ft | 4 kts | 295° |
| 2026-05-06 19:02 | -25.73263 | -54.47711 | 928 ft | 8 kts | 295° |
| 2026-05-06 19:03 | -25.73238 | -54.47772 | 930 ft | 9 kts | 295° |
| 2026-05-06 19:03 | -25.73222 | -54.47842 | 926 ft | 10 kts | 271° |
| 2026-05-06 19:03 | -25.73227 | -54.47919 | 929 ft | 10 kts | 264° |
| 2026-05-06 19:03 | -25.73234 | -54.48001 | 926 ft | 11 kts | 265° |
| 2026-05-06 19:04 | -25.73239 | -54.48087 | 926 ft | 11 kts | 265° |
| 2026-05-06 19:04 | -25.73247 | -54.48175 | 927 ft | 11 kts | 264° |
| 2026-05-06 19:04 | -25.73255 | -54.48261 | 930 ft | 11 kts | 265° |
| 2026-05-06 19:04 | -25.73262 | -54.48343 | 928 ft | 8 kts | 263° |
| 2026-05-06 19:05 | -25.73284 | -54.48374 | 928 ft | 4 kts | 178° |
| 2026-05-06 19:05 | -25.73302 | -54.48357 | 929 ft | 3 kts | 121° |
| 2026-05-06 19:05 | -25.73314 | -54.48332 | 930 ft | 10 kts | 116° |
| 2026-05-06 19:05 | -25.73427 | -54.48065 | 930 ft | 69 kts | 114° |
| 2026-05-06 19:06 | -25.73716 | -54.47370 | 929 ft | 129 kts | 114° |
| 2026-05-06 19:06 | -25.74162 | -54.46293 | 1040 ft | 171 kts | 114° |
| 2026-05-06 19:06 | -25.74685 | -54.45050 | 1676 ft | 184 kts | 111° |
| 2026-05-06 19:06 | -25.75235 | -54.43740 | 2349 ft | 193 kts | 109° |
| 2026-05-06 19:07 | -25.75808 | -54.42355 | 2970 ft | 203 kts | 108° |
| 2026-05-06 19:07 | -25.76415 | -54.40891 | 3510 ft | 216 kts | 108° |
| 2026-05-06 19:07 | -25.77270 | -54.39435 | 3974 ft | 243 kts | 136° |
| 2026-05-06 19:07 | -25.78861 | -54.38666 | 4531 ft | 260 kts | 167° |
| 2026-05-06 19:08 | -25.80709 | -54.38429 | 5085 ft | 278 kts | 176° |
| 2026-05-06 19:08 | -25.82692 | -54.38376 | 5720 ft | 293 kts | 179° |
| 2026-05-06 19:08 | -25.84772 | -54.38327 | 6408 ft | 305 kts | 178° |
| 2026-05-06 19:08 | -25.86897 | -54.38201 | 7250 ft | 307 kts | 176° |
| 2026-05-06 19:09 | -25.89022 | -54.38018 | 8177 ft | 307 kts | 175° |
| 2026-05-06 19:09 | -25.91156 | -54.37820 | 9070 ft | 310 kts | 175° |
| 2026-05-06 19:09 | -25.93308 | -54.37635 | 9974 ft | 312 kts | 176° |
| 2026-05-06 19:09 | -25.95488 | -54.37463 | 10652 ft | 320 kts | 177° |
| 2026-05-06 19:10 | -25.97751 | -54.37291 | 11113 ft | 334 kts | 177° |
| 2026-05-06 19:10 | -26.00116 | -54.37109 | 11539 ft | 349 kts | 177° |
| 2026-05-06 19:10 | -26.02583 | -54.36913 | 11928 ft | 364 kts | 177° |
| 2026-05-06 19:10 | -26.05146 | -54.36707 | 12359 ft | 375 kts | 177° |
| 2026-05-06 19:11 | -26.07763 | -54.36497 | 12975 ft | 380 kts | 177° |
| 2026-05-06 19:11 | -26.10401 | -54.36286 | 13673 ft | 382 kts | 178° |
| 2026-05-06 19:11 | -26.13058 | -54.36074 | 14260 ft | 385 kts | 178° |
| 2026-05-06 19:11 | -26.15736 | -54.35860 | 14857 ft | 388 kts | 178° |
| 2026-05-06 19:12 | -26.18429 | -54.35647 | 15471 ft | 390 kts | 178° |
| 2026-05-06 19:12 | -26.21132 | -54.35432 | 16114 ft | 391 kts | 178° |
| 2026-05-06 19:12 | -26.23845 | -54.35308 | 16720 ft | 391 kts | 185° |
| 2026-05-06 19:12 | -26.26524 | -54.35724 | 17327 ft | 389 kts | 197° |
| 2026-05-06 19:13 | -26.29108 | -54.36595 | 17950 ft | 389 kts | 200° |
| 2026-05-06 19:13 | -26.31683 | -54.37540 | 18515 ft | 391 kts | 201° |
| 2026-05-06 19:13 | -26.34262 | -54.38520 | 19025 ft | 394 kts | 202° |
| 2026-05-06 19:13 | -26.36857 | -54.39507 | 19508 ft | 396 kts | 201° |
| 2026-05-06 19:14 | -26.39477 | -54.40486 | 19988 ft | 400 kts | 201° |
| 2026-05-06 19:14 | -26.42121 | -54.41463 | 20500 ft | 403 kts | 201° |
| 2026-05-06 19:14 | -26.44783 | -54.42445 | 21022 ft | 405 kts | 202° |
| 2026-05-06 19:14 | -26.47461 | -54.43436 | 21515 ft | 408 kts | 202° |
| 2026-05-06 19:15 | -26.50155 | -54.44438 | 22001 ft | 411 kts | 202° |
| 2026-05-06 19:15 | -26.52869 | -54.45451 | 22478 ft | 413 kts | 202° |
| 2026-05-06 19:15 | -26.55592 | -54.46466 | 23024 ft | 413 kts | 202° |
| 2026-05-06 19:15 | -26.58319 | -54.47481 | 23534 ft | 415 kts | 202° |
| 2026-05-06 19:16 | -26.61055 | -54.48500 | 23932 ft | 416 kts | 202° |
| 2026-05-06 19:16 | -26.63802 | -54.49524 | 24320 ft | 418 kts | 202° |
| 2026-05-06 19:16 | -26.66556 | -54.50551 | 24700 ft | 419 kts | 202° |
| 2026-05-06 19:16 | -26.69312 | -54.51605 | 25067 ft | 419 kts | 206° |
| 2026-05-06 19:17 | -26.71900 | -54.53052 | 25441 ft | 415 kts | 216° |
| 2026-05-06 19:17 | -26.74337 | -54.54776 | 25814 ft | 416 kts | 216° |
| 2026-05-06 19:17 | -26.76764 | -54.56535 | 26145 ft | 417 kts | 217° |
| 2026-05-06 19:17 | -26.79187 | -54.58321 | 26495 ft | 418 kts | 217° |
| 2026-05-06 19:18 | -26.81616 | -54.60112 | 26856 ft | 420 kts | 217° |
| 2026-05-06 19:18 | -26.84055 | -54.61896 | 27225 ft | 420 kts | 217° |
| 2026-05-06 19:18 | -26.86500 | -54.63673 | 27573 ft | 420 kts | 217° |
| 2026-05-06 19:18 | -26.88950 | -54.65454 | 27895 ft | 421 kts | 217° |
| 2026-05-06 19:19 | -26.91404 | -54.67245 | 28190 ft | 423 kts | 218° |
| 2026-05-06 19:19 | -26.93863 | -54.69046 | 28476 ft | 424 kts | 218° |
| 2026-05-06 19:19 | -26.96330 | -54.70854 | 28760 ft | 425 kts | 218° |
| 2026-05-06 19:19 | -26.98798 | -54.72662 | 29155 ft | 424 kts | 218° |
| 2026-05-06 19:20 | -27.01258 | -54.74460 | 29589 ft | 422 kts | 218° |
| 2026-05-06 19:20 | -27.03703 | -54.76248 | 30039 ft | 419 kts | 218° |
| 2026-05-06 19:20 | -27.06129 | -54.78025 | 30453 ft | 416 kts | 218° |
| 2026-05-06 19:20 | -27.08537 | -54.79791 | 30826 ft | 413 kts | 219° |
| 2026-05-06 19:21 | -27.10931 | -54.81549 | 31205 ft | 411 kts | 219° |
| 2026-05-06 19:21 | -27.13312 | -54.83298 | 31598 ft | 409 kts | 219° |
| 2026-05-06 19:21 | -27.15682 | -54.85039 | 31948 ft | 408 kts | 219° |
| 2026-05-06 19:22 | -27.20432 | -54.88532 | 31995 ft | 404 kts | 219° |
| 2026-05-06 19:22 | -27.25103 | -54.91968 | 31991 ft | 401 kts | 219° |
| 2026-05-06 19:23 | -27.29744 | -54.95390 | 31983 ft | 400 kts | 219° |
| 2026-05-06 19:23 | -27.34046 | -54.99200 | 31995 ft | 389 kts | 233° |
| 2026-05-06 19:23 | -27.35620 | -55.01634 | 31996 ft | 384 kts | 244° |
| 2026-05-06 19:24 | -27.36866 | -55.04271 | 32001 ft | 382 kts | 245° |
| 2026-05-06 19:24 | -27.39256 | -55.09609 | 31984 ft | 383 kts | 246° |
| 2026-05-06 19:25 | -27.41648 | -55.14946 | 31973 ft | 383 kts | 246° |
| 2026-05-06 19:25 | -27.44067 | -55.20278 | 31973 ft | 383 kts | 246° |
| 2026-05-06 19:26 | -27.46474 | -55.25626 | 31980 ft | 384 kts | 246° |
| 2026-05-06 19:26 | -27.48878 | -55.30975 | 31967 ft | 383 kts | 246° |
| 2026-05-06 19:27 | -27.51280 | -55.36319 | 31965 ft | 383 kts | 246° |
| 2026-05-06 19:27 | -27.53678 | -55.41664 | 31966 ft | 383 kts | 246° |
| 2026-05-06 19:28 | -27.56077 | -55.47017 | 31970 ft | 384 kts | 246° |
| 2026-05-06 19:28 | -27.58470 | -55.52365 | 31958 ft | 383 kts | 246° |
| 2026-05-06 19:29 | -27.61051 | -55.57622 | 31961 ft | 389 kts | 237° |
| 2026-05-06 19:29 | -27.62920 | -55.59857 | 31959 ft | 398 kts | 226° |
| 2026-05-06 19:29 | -27.65176 | -55.61704 | 31967 ft | 404 kts | 221° |
| 2026-05-06 19:30 | -27.69864 | -55.65195 | 31956 ft | 403 kts | 220° |
| 2026-05-06 19:30 | -27.74538 | -55.68657 | 31935 ft | 403 kts | 220° |
| 2026-05-06 19:31 | -27.79174 | -55.72171 | 31943 ft | 402 kts | 221° |
| 2026-05-06 19:31 | -27.86153 | -55.77421 | 31948 ft | 402 kts | 220° |
| 2026-05-06 19:32 | -27.90801 | -55.80922 | 31949 ft | 402 kts | 221° |
| 2026-05-06 19:32 | -27.95432 | -55.84419 | 31932 ft | 401 kts | 221° |
| 2026-05-06 19:33 | -28.00063 | -55.87918 | 31933 ft | 401 kts | 221° |
| 2026-05-06 19:33 | -28.04699 | -55.91423 | 31926 ft | 401 kts | 221° |
| 2026-05-06 19:34 | -28.09333 | -55.94931 | 31926 ft | 402 kts | 221° |
| 2026-05-06 19:34 | -28.13965 | -55.98441 | 31932 ft | 401 kts | 221° |
| 2026-05-06 19:35 | -28.18594 | -56.01953 | 31924 ft | 401 kts | 221° |
| 2026-05-06 19:35 | -28.23218 | -56.05463 | 31937 ft | 400 kts | 222° |
| 2026-05-06 19:36 | -28.27822 | -56.08963 | 31928 ft | 400 kts | 222° |
| 2026-05-06 19:36 | -28.32432 | -56.12473 | 31924 ft | 400 kts | 222° |
| 2026-05-06 19:37 | -28.37041 | -56.15983 | 31918 ft | 400 kts | 222° |
| 2026-05-06 19:37 | -28.41647 | -56.19496 | 31912 ft | 400 kts | 222° |
| 2026-05-06 19:38 | -28.46255 | -56.23014 | 31918 ft | 400 kts | 222° |
| 2026-05-06 19:38 | -28.50862 | -56.26534 | 31917 ft | 400 kts | 222° |
| 2026-05-06 19:39 | -28.55461 | -56.30052 | 31925 ft | 398 kts | 222° |
| 2026-05-06 19:39 | -28.60057 | -56.33575 | 31906 ft | 400 kts | 222° |
| 2026-05-06 19:40 | -28.64671 | -56.37112 | 31911 ft | 401 kts | 222° |
| 2026-05-06 19:40 | -28.69278 | -56.40645 | 31917 ft | 400 kts | 222° |
| 2026-05-06 19:41 | -28.73883 | -56.44185 | 31906 ft | 400 kts | 222° |
| 2026-05-06 19:41 | -28.78487 | -56.47726 | 31900 ft | 400 kts | 222° |
| 2026-05-06 19:42 | -28.83089 | -56.51270 | 31923 ft | 400 kts | 222° |
| 2026-05-06 19:42 | -28.87685 | -56.54813 | 31908 ft | 399 kts | 223° |
| 2026-05-06 19:43 | -28.92277 | -56.58356 | 31907 ft | 400 kts | 223° |
| 2026-05-06 19:43 | -28.96878 | -56.61912 | 31908 ft | 400 kts | 223° |
| 2026-05-06 19:44 | -29.01477 | -56.65467 | 31896 ft | 400 kts | 223° |
| 2026-05-06 19:44 | -29.06073 | -56.69027 | 31893 ft | 400 kts | 223° |
| 2026-05-06 19:45 | -29.10672 | -56.72592 | 31892 ft | 400 kts | 223° |
| 2026-05-06 19:45 | -29.15269 | -56.76158 | 31909 ft | 400 kts | 223° |
| 2026-05-06 19:46 | -29.19858 | -56.79722 | 31897 ft | 399 kts | 223° |
| 2026-05-06 19:46 | -29.24443 | -56.83289 | 31894 ft | 399 kts | 223° |
| 2026-05-06 19:47 | -29.29033 | -56.86863 | 31890 ft | 400 kts | 223° |
| 2026-05-06 19:47 | -29.33627 | -56.90442 | 31889 ft | 400 kts | 223° |
| 2026-05-06 19:48 | -29.38217 | -56.94023 | 31884 ft | 400 kts | 223° |
| 2026-05-06 19:48 | -29.42805 | -56.97607 | 31877 ft | 400 kts | 223° |
| 2026-05-06 19:49 | -29.47392 | -57.01195 | 31874 ft | 400 kts | 223° |
| 2026-05-06 19:49 | -29.51978 | -57.04784 | 31877 ft | 400 kts | 223° |
| 2026-05-06 19:50 | -29.56565 | -57.08380 | 31870 ft | 400 kts | 223° |
| 2026-05-06 19:50 | -29.61149 | -57.11976 | 31883 ft | 400 kts | 224° |
| 2026-05-06 19:51 | -29.65742 | -57.15586 | 31877 ft | 401 kts | 224° |
| 2026-05-06 19:51 | -29.70338 | -57.19197 | 31872 ft | 400 kts | 224° |
| 2026-05-06 19:52 | -29.74931 | -57.22815 | 31866 ft | 401 kts | 224° |
| 2026-05-06 19:52 | -29.79526 | -57.26437 | 31860 ft | 402 kts | 224° |
| 2026-05-06 19:53 | -29.84122 | -57.30061 | 31859 ft | 401 kts | 224° |
| 2026-05-06 19:53 | -29.88714 | -57.33690 | 31853 ft | 401 kts | 224° |
| 2026-05-06 19:54 | -29.93304 | -57.37320 | 31857 ft | 401 kts | 224° |
| 2026-05-06 19:54 | -29.97900 | -57.40959 | 31863 ft | 402 kts | 224° |
| 2026-05-06 19:55 | -30.02494 | -57.44600 | 31856 ft | 401 kts | 224° |
| 2026-05-06 19:55 | -30.07085 | -57.48243 | 31852 ft | 401 kts | 224° |
| 2026-05-06 19:56 | -30.11676 | -57.51891 | 31859 ft | 401 kts | 224° |
| 2026-05-06 19:56 | -30.16265 | -57.55541 | 31849 ft | 401 kts | 224° |
| 2026-05-06 19:57 | -30.20853 | -57.59195 | 31853 ft | 402 kts | 224° |
| 2026-05-06 19:57 | -30.25456 | -57.62834 | 31842 ft | 405 kts | 221° |
| 2026-05-06 19:58 | -30.28030 | -57.64271 | 31849 ft | 421 kts | 210° |
| 2026-05-06 19:58 | -30.30827 | -57.65326 | 31864 ft | 425 kts | 208° |
| 2026-05-06 19:58 | -30.36524 | -57.67281 | 31866 ft | 429 kts | 207° |
| 2026-05-06 19:59 | -30.42212 | -57.69218 | 31846 ft | 425 kts | 208° |
| 2026-05-06 19:59 | -30.47859 | -57.71219 | 31841 ft | 425 kts | 208° |
| 2026-05-06 20:00 | -30.53514 | -57.73196 | 31845 ft | 426 kts | 207° |
| 2026-05-06 20:00 | -30.59176 | -57.75167 | 31844 ft | 425 kts | 208° |
| 2026-05-06 20:01 | -30.64831 | -57.77152 | 31856 ft | 426 kts | 208° |
| 2026-05-06 20:01 | -30.70498 | -57.79141 | 31842 ft | 426 kts | 208° |
| 2026-05-06 20:02 | -30.76169 | -57.81112 | 31835 ft | 426 kts | 207° |
| 2026-05-06 20:02 | -30.81840 | -57.83083 | 31831 ft | 426 kts | 208° |
| 2026-05-06 20:03 | -30.87506 | -57.85064 | 31829 ft | 426 kts | 208° |
| 2026-05-06 20:03 | -30.93176 | -57.87047 | 31832 ft | 427 kts | 207° |
| 2026-05-06 20:04 | -30.98858 | -57.89033 | 31829 ft | 427 kts | 207° |
| 2026-05-06 20:04 | -31.04535 | -57.91022 | 31825 ft | 427 kts | 207° |
| 2026-05-06 20:05 | -31.10215 | -57.93015 | 31838 ft | 427 kts | 207° |
| 2026-05-06 20:05 | -31.15918 | -57.95021 | 31837 ft | 430 kts | 207° |
| 2026-05-06 20:06 | -31.21626 | -57.97024 | 31817 ft | 429 kts | 207° |
| 2026-05-06 20:06 | -31.27330 | -57.99033 | 31820 ft | 429 kts | 207° |
| 2026-05-06 20:07 | -31.33034 | -58.01045 | 31793 ft | 429 kts | 207° |
| 2026-05-06 20:07 | -31.38742 | -58.03060 | 31826 ft | 429 kts | 207° |
| 2026-05-06 20:08 | -31.44455 | -58.05079 | 31826 ft | 429 kts | 207° |
| 2026-05-06 20:08 | -31.50155 | -58.07095 | 31811 ft | 429 kts | 207° |
| 2026-05-06 20:09 | -31.55856 | -58.09117 | 31797 ft | 429 kts | 207° |
| 2026-05-06 20:09 | -31.61554 | -58.11138 | 31800 ft | 429 kts | 207° |
| 2026-05-06 20:10 | -31.67259 | -58.13164 | 31801 ft | 429 kts | 207° |
| 2026-05-06 20:10 | -31.72966 | -58.15196 | 31808 ft | 430 kts | 207° |
| 2026-05-06 20:11 | -31.78669 | -58.17225 | 31803 ft | 429 kts | 207° |
| 2026-05-06 20:11 | -31.84381 | -58.19262 | 31799 ft | 429 kts | 207° |
| 2026-05-06 20:12 | -31.90085 | -58.21301 | 31803 ft | 431 kts | 207° |
| 2026-05-06 20:12 | -31.95819 | -58.23351 | 31810 ft | 432 kts | 207° |
| 2026-05-06 20:13 | -32.01564 | -58.25406 | 31801 ft | 432 kts | 207° |
| 2026-05-06 20:13 | -32.07300 | -58.27463 | 31793 ft | 432 kts | 207° |
| 2026-05-06 20:14 | -32.13028 | -58.29519 | 31792 ft | 432 kts | 207° |
| 2026-05-06 20:14 | -32.18769 | -58.31582 | 31789 ft | 432 kts | 207° |
| 2026-05-06 20:15 | -32.24496 | -58.33644 | 31783 ft | 432 kts | 207° |
| 2026-05-06 20:15 | -32.30234 | -58.35712 | 31781 ft | 432 kts | 207° |
| 2026-05-06 20:16 | -32.35959 | -58.37777 | 31787 ft | 432 kts | 207° |
| 2026-05-06 20:16 | -32.41697 | -58.39848 | 31780 ft | 431 kts | 207° |
| 2026-05-06 20:17 | -32.47428 | -58.41920 | 31784 ft | 431 kts | 207° |
| 2026-05-06 20:17 | -32.53158 | -58.43995 | 31776 ft | 432 kts | 207° |
| 2026-05-06 20:18 | -32.58889 | -58.46073 | 31774 ft | 432 kts | 207° |
| 2026-05-06 20:18 | -32.64618 | -58.48152 | 31783 ft | 432 kts | 207° |
| 2026-05-06 20:19 | -32.70374 | -58.50246 | 31385 ft | 435 kts | 207° |
| 2026-05-06 20:19 | -32.73256 | -58.51296 | 30876 ft | 434 kts | 206° |
| 2026-05-06 20:19 | -32.76126 | -58.52338 | 30378 ft | 433 kts | 206° |
| 2026-05-06 20:20 | -32.79000 | -58.53383 | 29883 ft | 431 kts | 205° |
| 2026-05-06 20:20 | -32.81850 | -58.54421 | 29364 ft | 429 kts | 205° |
| 2026-05-06 20:20 | -32.84698 | -58.55460 | 28871 ft | 427 kts | 205° |
| 2026-05-06 20:20 | -32.87515 | -58.56488 | 28390 ft | 424 kts | 205° |
| 2026-05-06 20:21 | -32.90327 | -58.57516 | 27918 ft | 421 kts | 205° |
| 2026-05-06 20:21 | -32.93117 | -58.58536 | 27451 ft | 419 kts | 205° |
| 2026-05-06 20:21 | -32.95893 | -58.59553 | 26990 ft | 417 kts | 205° |
| 2026-05-06 20:21 | -32.98659 | -58.60566 | 26530 ft | 416 kts | 205° |
| 2026-05-06 20:22 | -33.01470 | -58.61411 | 26085 ft | 422 kts | 195° |
| 2026-05-06 20:22 | -33.04389 | -58.61832 | 25604 ft | 424 kts | 193° |
| 2026-05-06 20:22 | -33.07317 | -58.62195 | 25146 ft | 424 kts | 192° |
| 2026-05-06 20:22 | -33.10251 | -58.62514 | 24675 ft | 424 kts | 191° |
| 2026-05-06 20:23 | -33.13185 | -58.62823 | 24207 ft | 424 kts | 191° |
| 2026-05-06 20:23 | -33.16116 | -58.63150 | 23747 ft | 424 kts | 191° |
| 2026-05-06 20:23 | -33.19045 | -58.63496 | 23258 ft | 424 kts | 191° |
| 2026-05-06 20:23 | -33.21974 | -58.63848 | 22749 ft | 423 kts | 191° |
| 2026-05-06 20:24 | -33.24896 | -58.64192 | 22259 ft | 422 kts | 191° |
| 2026-05-06 20:24 | -33.27807 | -58.64528 | 21768 ft | 420 kts | 191° |
| 2026-05-06 20:24 | -33.30706 | -58.64860 | 21314 ft | 418 kts | 191° |
| 2026-05-06 20:24 | -33.33592 | -58.65193 | 20850 ft | 417 kts | 191° |
| 2026-05-06 20:25 | -33.36467 | -58.65528 | 20390 ft | 415 kts | 191° |
| 2026-05-06 20:25 | -33.39331 | -58.65864 | 19928 ft | 414 kts | 191° |
| 2026-05-06 20:25 | -33.42187 | -58.66198 | 19467 ft | 413 kts | 191° |
| 2026-05-06 20:25 | -33.45033 | -58.66530 | 19016 ft | 411 kts | 191° |
| 2026-05-06 20:26 | -33.47873 | -58.66860 | 18558 ft | 410 kts | 191° |
| 2026-05-06 20:26 | -33.50705 | -58.67191 | 18103 ft | 409 kts | 191° |
| 2026-05-06 20:26 | -33.53528 | -58.67521 | 17611 ft | 408 kts | 191° |
| 2026-05-06 20:26 | -33.56336 | -58.67849 | 17134 ft | 405 kts | 191° |
| 2026-05-06 20:27 | -33.59125 | -58.68175 | 16686 ft | 402 kts | 191° |
| 2026-05-06 20:27 | -33.61891 | -58.68499 | 16243 ft | 399 kts | 191° |
| 2026-05-06 20:27 | -33.64636 | -58.68820 | 15807 ft | 395 kts | 191° |
| 2026-05-06 20:27 | -33.67358 | -58.69139 | 15357 ft | 392 kts | 191° |
| 2026-05-06 20:28 | -33.70057 | -58.69456 | 14931 ft | 389 kts | 191° |
| 2026-05-06 20:28 | -33.72736 | -58.69771 | 14499 ft | 386 kts | 191° |
| 2026-05-06 20:28 | -33.75392 | -58.70083 | 14054 ft | 383 kts | 191° |
| 2026-05-06 20:28 | -33.78025 | -58.70392 | 13650 ft | 380 kts | 191° |
| 2026-05-06 20:29 | -33.80637 | -58.70699 | 13209 ft | 376 kts | 191° |
| 2026-05-06 20:29 | -33.83223 | -58.71004 | 12773 ft | 372 kts | 191° |
| 2026-05-06 20:29 | -33.85779 | -58.71304 | 12346 ft | 368 kts | 191° |
| 2026-05-06 20:29 | -33.88305 | -58.71602 | 11952 ft | 363 kts | 191° |
| 2026-05-06 20:30 | -33.90803 | -58.71896 | 11548 ft | 359 kts | 191° |
| 2026-05-06 20:30 | -33.95717 | -58.72445 | 10767 ft | 352 kts | 190° |
| 2026-05-06 20:30 | -33.98138 | -58.72682 | 10365 ft | 348 kts | 190° |
| 2026-05-06 20:31 | -34.00534 | -58.72916 | 9978 ft | 344 kts | 190° |
| 2026-05-06 20:31 | -34.02879 | -58.73151 | 9824 ft | 333 kts | 190° |
| 2026-05-06 20:31 | -34.05142 | -58.73383 | 9645 ft | 323 kts | 191° |
| 2026-05-06 20:31 | -34.07374 | -58.73619 | 9227 ft | 322 kts | 191° |
| 2026-05-06 20:32 | -34.09597 | -58.73855 | 8830 ft | 321 kts | 191° |
| 2026-05-06 20:32 | -34.11809 | -58.74086 | 8460 ft | 319 kts | 190° |
| 2026-05-06 20:32 | -34.14009 | -58.74312 | 8103 ft | 317 kts | 190° |
| 2026-05-06 20:32 | -34.16175 | -58.74532 | 7746 ft | 307 kts | 191° |
| 2026-05-06 20:33 | -34.18257 | -58.74741 | 7449 ft | 294 kts | 191° |
| 2026-05-06 20:33 | -34.20250 | -58.74944 | 7218 ft | 282 kts | 191° |
| 2026-05-06 20:33 | -34.22156 | -58.75141 | 7012 ft | 270 kts | 192° |
| 2026-05-06 20:33 | -34.23997 | -58.75335 | 6729 ft | 264 kts | 192° |
| 2026-05-06 20:34 | -34.25814 | -58.75528 | 6366 ft | 262 kts | 192° |
| 2026-05-06 20:34 | -34.27622 | -58.75720 | 5968 ft | 261 kts | 192° |
| 2026-05-06 20:34 | -34.29421 | -58.75908 | 5756 ft | 258 kts | 191° |
| 2026-05-06 20:34 | -34.31236 | -58.75925 | 5739 ft | 269 kts | 175° |
| 2026-05-06 20:35 | -34.33028 | -58.75289 | 5722 ft | 271 kts | 153° |
| 2026-05-06 20:35 | -34.34525 | -58.73908 | 5738 ft | 275 kts | 134° |
| 2026-05-06 20:35 | -34.35647 | -58.72087 | 5736 ft | 267 kts | 108° |
| 2026-05-06 20:35 | -34.35960 | -58.69942 | 5750 ft | 256 kts | 76° |
| 2026-05-06 20:36 | -34.35417 | -58.68019 | 5760 ft | 234 kts | 44° |
| 2026-05-06 20:36 | -34.34242 | -58.66836 | 5755 ft | 213 kts | 13° |
| 2026-05-06 20:36 | -34.32781 | -58.66682 | 5776 ft | 220 kts | 342° |
| 2026-05-06 20:36 | -34.31412 | -58.67504 | 5775 ft | 224 kts | 322° |
| 2026-05-06 20:37 | -34.30254 | -58.68823 | 5764 ft | 229 kts | 312° |
| 2026-05-06 20:37 | -34.29248 | -58.70284 | 5755 ft | 229 kts | 310° |
| 2026-05-06 20:37 | -34.28478 | -58.71961 | 5754 ft | 234 kts | 285° |
| 2026-05-06 20:37 | -34.28709 | -58.73963 | 5762 ft | 258 kts | 251° |
| 2026-05-06 20:38 | -34.29756 | -58.75755 | 5748 ft | 268 kts | 232° |
| 2026-05-06 20:38 | -34.31443 | -58.76888 | 5633 ft | 295 kts | 199° |
| 2026-05-06 20:38 | -34.33505 | -58.76826 | 5368 ft | 304 kts | 165° |
| 2026-05-06 20:38 | -34.35308 | -58.75530 | 5082 ft | 306 kts | 134° |
| 2026-05-06 20:39 | -34.36713 | -58.73631 | 4800 ft | 302 kts | 128° |
| 2026-05-06 20:39 | -34.38005 | -58.71649 | 4503 ft | 299 kts | 124° |
| 2026-05-06 20:39 | -34.39252 | -58.69651 | 4208 ft | 297 kts | 124° |
| 2026-05-06 20:39 | -34.40505 | -58.67680 | 3905 ft | 295 kts | 125° |
| 2026-05-06 20:40 | -34.41774 | -58.65741 | 3604 ft | 293 kts | 125° |
| 2026-05-06 20:40 | -34.43038 | -58.63837 | 3317 ft | 290 kts | 125° |
| 2026-05-06 20:40 | -34.44292 | -58.61944 | 3038 ft | 287 kts | 124° |
| 2026-05-06 20:40 | -34.45528 | -58.60084 | 3006 ft | 280 kts | 123° |
| 2026-05-06 20:41 | -34.46643 | -58.58206 | 3004 ft | 271 kts | 120° |
| 2026-05-06 20:41 | -34.47702 | -58.56292 | 2700 ft | 277 kts | 119° |
| 2026-05-06 20:41 | -34.48778 | -58.54353 | 2327 ft | 275 kts | 120° |
| 2026-05-06 20:41 | -34.49827 | -58.52482 | 1966 ft | 264 kts | 120° |
| 2026-05-06 20:42 | -34.50822 | -58.50710 | 1633 ft | 240 kts | 120° |
| 2026-05-06 20:42 | -34.51704 | -58.49135 | 1332 ft | 211 kts | 121° |
| 2026-05-06 20:42 | -34.52475 | -58.47759 | 1073 ft | 186 kts | 120° |
| 2026-05-06 20:42 | -34.53150 | -58.46549 | 821 ft | 162 kts | 118° |
| 2026-05-06 20:43 | -34.53723 | -58.45520 | 663 ft | 138 kts | 122° |
| 2026-05-06 20:43 | -34.54245 | -58.44582 | 450 ft | 129 kts | 121° |
| 2026-05-06 20:43 | -34.54732 | -58.43706 | 292 ft | 124 kts | 122° |
| 2026-05-06 20:43 | -34.55224 | -58.42822 | 108 ft | 130 kts | 123° |
| 2026-05-06 20:44 | -34.55691 | -58.41988 | 27 ft | 90 kts | 124° |
| 2026-05-06 20:44 | -34.55877 | -58.41655 | 26 ft | 34 kts | 124° |
| 2026-05-06 20:44 | -34.55998 | -58.41436 | 26 ft | 20 kts | 123° |
| 2026-05-06 20:44 | -34.56009 | -58.41364 | 27 ft | 6 kts | 59° |
| 2026-05-06 20:45 | -34.55984 | -58.41336 | 27 ft | 4 kts | 38° |
| 2026-05-06 20:45 | -34.55972 | -58.41327 | 28 ft | 1 kts | 35° |
| 2026-05-06 20:45 | -34.55967 | -58.41322 | 28 ft | 1 kts | 34° |
| 2026-05-06 20:45 | -34.55938 | -58.41308 | 28 ft | 6 kts | 11° |
| 2026-05-06 20:46 | -34.55899 | -58.41301 | 28 ft | 6 kts | 14° |
| 2026-05-06 20:46 | -34.55865 | -58.41281 | 28 ft | 5 kts | 24° |
| 2026-05-06 20:46 | -34.55835 | -58.41290 | 28 ft | 4 kts | 321° |
| 2026-05-06 20:46 | -34.55817 | -58.41320 | 28 ft | 5 kts | 305° |
| 2026-05-06 20:47 | -34.55798 | -58.41354 | 28 ft | 5 kts | 303° |
| 2026-05-06 20:47 | -34.55778 | -58.41391 | 28 ft | 5 kts | 303° |
| 2026-05-06 20:47 | -34.55758 | -58.41428 | 28 ft | 5 kts | 302° |
| 2026-05-06 20:47 | -34.55755 | -58.41463 | 28 ft | 3 kts | 239° |
| 2026-05-06 20:48 | -34.55774 | -58.41477 | 28 ft | 3 kts | 209° |
| 2026-05-06 20:48 | -34.55785 | -58.41485 | 28 ft | 0 kts | 210° |